Time;durP1;ratioP1;P1;durP2;ratioP2;P2;SDS_P1;SDS_P2;PMS_P1;PMS_P2;Temp;Humidity;BMP_temperature;BMP_pressure;BME280_temperature;BME280_humidity;BME280_pressure;Samples;Min_cycle;Max_cycle;Signal;HPM_P1;HPM_P2
2021/05/30 00:02:15;;;;;;;1.67;0.90;;;17.00;56.20;;;;;;5115977;28;20380;-67
2021/05/30 00:04:41;;;;;;;2.95;0.90;;;17.00;55.60;;;;;;5115870;28;20023;-67
2021/05/30 00:07:07;;;;;;;1.20;1.08;;;17.00;55.60;;;;;;5115686;28;20031;-67
2021/05/30 00:09:34;;;;;;;1.00;0.88;;;17.00;55.90;;;;;;5115806;28;20364;-67
2021/05/30 00:12:00;;;;;;;1.38;0.90;;;17.00;55.70;;;;;;5115114;28;20495;-67
2021/05/30 00:14:26;;;;;;;1.80;0.98;;;17.00;55.00;;;;;;5115786;28;20019;-67
2021/05/30 00:16:52;;;;;;;1.90;0.80;;;17.00;55.10;;;;;;5115793;28;20040;-67
2021/05/30 00:19:18;;;;;;;1.40;0.95;;;17.00;55.20;;;;;;5114802;28;20548;-67
2021/05/30 00:21:45;;;;;;;3.00;1.10;;;17.00;54.40;;;;;;5114096;28;20032;-67
2021/05/30 00:24:11;;;;;;;1.10;0.93;;;17.00;54.30;;;;;;5115567;28;20400;-67
2021/05/30 00:26:37;;;;;;;5.47;1.05;;;17.00;53.90;;;;;;5115464;28;20042;-67
2021/05/30 00:29:04;;;;;;;2.85;0.90;;;17.00;54.00;;;;;;5115330;28;20123;-67
2021/05/30 00:31:30;;;;;;;1.20;1.00;;;17.00;54.10;;;;;;5115718;28;20024;-67
2021/05/30 00:33:55;;;;;;;1.75;0.93;;;17.00;54.00;;;;;;5115663;28;20453;-67
2021/05/30 00:36:21;;;;;;;4.18;1.10;;;16.90;54.30;;;;;;5115181;28;20059;-67
2021/05/30 00:38:47;;;;;;;1.58;0.90;;;16.90;54.20;;;;;;5115468;28;20081;-67
2021/05/30 00:41:13;;;;;;;2.33;0.80;;;16.90;54.30;;;;;;5115558;28;20023;-67
2021/05/30 00:43:51;;;;;;;1.25;0.98;;;16.90;54.60;;;;;;5115653;28;20040;-67
2021/05/30 00:46:17;;;;;;;1.67;1.30;;;16.90;54.70;;;;;;5115401;28;20034;-67
2021/05/30 00:48:44;;;;;;;2.72;1.10;;;16.90;54.60;;;;;;5115000;28;20028;-67
2021/05/30 00:51:10;;;;;;;2.08;1.08;;;16.90;54.20;;;;;;5115153;28;20028;-67
2021/05/30 00:53:36;;;;;;;3.80;0.90;;;16.90;54.20;;;;;;5115376;28;20028;-67
2021/05/30 00:56:09;;;;;;;1.13;0.90;;;16.90;54.50;;;;;;5114288;28;20369;-67
2021/05/30 00:58:36;;;;;;;1.10;0.80;;;16.90;54.60;;;;;;5112654;28;20087;-67
2021/05/30 01:01:01;;;;;;;2.30;1.10;;;16.80;55.20;;;;;;5112219;28;20024;-67
2021/05/30 01:03:27;;;;;;;1.83;1.25;;;16.80;55.30;;;;;;5112260;28;20043;-67
2021/05/30 01:05:54;;;;;;;1.88;0.98;;;16.80;55.40;;;;;;5114192;28;20023;-67
2021/05/30 01:08:27;;;;;;;1.50;1.17;;;16.80;55.80;;;;;;5114770;28;20164;-67
2021/05/30 01:10:54;;;;;;;2.05;1.10;;;16.70;56.00;;;;;;5114894;28;20027;-67
2021/05/30 01:13:21;;;;;;;1.35;0.90;;;16.70;56.10;;;;;;5114420;28;20506;-67
2021/05/30 01:15:48;;;;;;;2.25;0.90;;;16.70;56.30;;;;;;5114066;28;20023;-67
2021/05/30 01:18:24;;;;;;;1.77;1.00;;;16.70;56.40;;;;;;5114328;28;20042;-67
2021/05/30 01:20:51;;;;;;;1.75;0.93;;;16.70;57.00;;;;;;5114382;28;20024;-67
2021/05/30 01:23:18;;;;;;;1.55;1.00;;;16.60;57.20;;;;;;5114214;28;20053;-67
2021/05/30 01:25:48;;;;;;;4.15;1.02;;;16.60;57.40;;;;;;5114205;28;20030;-67
2021/05/30 01:28:14;;;;;;;2.72;1.25;;;16.50;57.20;;;;;;5113773;28;20047;-66
2021/05/30 01:30:41;;;;;;;1.98;1.02;;;16.50;57.00;;;;;;5113437;28;20024;-67
2021/05/30 01:33:07;;;;;;;2.50;1.20;;;16.50;56.90;;;;;;5114273;28;20023;-67
2021/05/30 01:35:33;;;;;;;2.05;1.20;;;16.50;57.10;;;;;;5114189;28;20016;-67
2021/05/30 01:37:59;;;;;;;3.03;1.10;;;16.50;57.30;;;;;;5114082;28;20027;-67
2021/05/30 01:40:26;;;;;;;2.00;1.00;;;16.40;57.90;;;;;;5114137;28;20107;-67
2021/05/30 01:42:55;;;;;;;2.25;1.10;;;16.40;57.70;;;;;;5113650;28;20028;-67
2021/05/30 01:45:23;;;;;;;1.88;1.08;;;16.40;57.80;;;;;;5114123;28;20076;-67
2021/05/30 01:47:49;;;;;;;2.78;1.20;;;16.30;58.20;;;;;;5113917;28;20460;-67
2021/05/30 01:50:18;;;;;;;5.75;1.40;;;16.30;58.10;;;;;;5113617;28;20035;-67
2021/05/30 01:52:45;;;;;;;1.42;1.00;;;16.30;59.20;;;;;;5113986;28;20520;-67
2021/05/30 01:55:44;;;;;;;1.70;1.30;;;16.20;59.00;;;;;;5113875;28;20141;-67
2021/05/30 01:58:12;;;;;;;1.88;1.20;;;16.20;59.50;;;;;;5113585;28;20090;-68
2021/05/30 02:00:37;;;;;;;2.05;1.20;;;16.20;59.40;;;;;;5112379;28;20030;-67
2021/05/30 02:03:04;;;;;;;5.13;1.45;;;16.20;60.30;;;;;;5113526;28;20028;-67
2021/05/30 02:05:30;;;;;;;2.15;1.20;;;16.10;59.70;;;;;;5113775;28;20030;-67
2021/05/30 02:07:56;;;;;;;2.30;1.13;;;16.10;59.60;;;;;;5113564;28;20483;-68
2021/05/30 02:10:23;;;;;;;1.35;1.10;;;16.10;60.60;;;;;;5113835;28;20112;-67
2021/05/30 02:12:52;;;;;;;1.77;1.23;;;16.10;59.30;;;;;;5113758;28;20024;-67
2021/05/30 02:15:19;;;;;;;1.60;1.10;;;16.00;59.40;;;;;;5113804;28;20031;-67
2021/05/30 02:17:45;;;;;;;2.15;1.20;;;16.00;59.90;;;;;;5113386;28;20131;-67
2021/05/30 02:20:13;;;;;;;2.50;1.45;;;16.00;59.80;;;;;;5113488;28;20069;-67
2021/05/30 02:22:39;;;;;;;1.65;1.30;;;16.00;60.10;;;;;;5113668;28;20571;-67
2021/05/30 02:25:06;;;;;;;2.53;1.35;;;16.00;60.70;;;;;;5113646;28;20055;-66
2021/05/30 02:27:31;;;;;;;3.00;1.50;;;16.00;60.10;;;;;;5113655;28;20031;-67
2021/05/30 02:29:57;;;;;;;3.28;1.55;;;16.00;60.10;;;;;;5113099;28;20043;-67
2021/05/30 02:32:23;;;;;;;3.00;1.65;;;16.00;60.20;;;;;;5113317;28;20027;-67
2021/05/30 02:34:48;;;;;;;1.65;1.30;;;16.00;60.20;;;;;;5113523;28;20110;-67
2021/05/30 02:37:16;;;;;;;2.05;1.40;;;16.00;60.10;;;;;;5116746;28;20039;-67
2021/05/30 02:39:43;;;;;;;1.83;1.30;;;16.00;59.20;;;;;;5117551;28;20103;-67
2021/05/30 02:42:10;;;;;;;1.58;1.30;;;16.00;59.10;;;;;;5117374;28;20027;-67
2021/05/30 02:44:36;;;;;;;2.08;1.30;;;16.00;59.10;;;;;;5117537;28;20020;-66
2021/05/30 02:47:02;;;;;;;3.60;1.50;;;16.00;58.80;;;;;;5117549;28;20378;-67
2021/05/30 02:49:29;;;;;;;1.67;1.20;;;16.00;58.90;;;;;;5117462;28;20384;-67
2021/05/30 02:51:56;;;;;;;2.13;1.40;;;16.00;58.80;;;;;;5099299;28;20066;-67
2021/05/30 02:54:22;;;;;;;1.67;1.40;;;16.00;58.40;;;;;;5117598;28;20357;-67
2021/05/30 02:56:47;;;;;;;2.28;1.13;;;16.00;58.40;;;;;;5117334;28;20514;-67
2021/05/30 02:59:13;;;;;;;6.97;1.35;;;16.10;58.30;;;;;;5117144;28;20090;-67
2021/05/30 03:01:39;;;;;;;4.03;1.25;;;16.00;58.00;;;;;;5117488;28;20023;-67
2021/05/30 03:04:05;;;;;;;1.67;1.30;;;16.00;58.00;;;;;;5117272;28;20064;-67
2021/05/30 03:06:31;;;;;;;3.15;1.23;;;16.10;58.30;;;;;;5117195;28;20016;-67
2021/05/30 03:08:59;;;;;;;1.40;1.13;;;16.00;58.70;;;;;;5116687;28;20024;-67
2021/05/30 03:11:25;;;;;;;2.50;1.70;;;16.00;59.00;;;;;;5116497;28;20019;-67
2021/05/30 03:13:52;;;;;;;3.00;1.20;;;16.00;59.70;;;;;;5116788;28;20027;-67
2021/05/30 03:16:18;;;;;;;2.15;1.30;;;16.00;59.40;;;;;;5117310;28;20388;-67
2021/05/30 03:18:45;;;;;;;1.65;1.30;;;15.90;59.70;;;;;;5116943;28;20086;-67
2021/05/30 03:21:10;;;;;;;3.20;1.30;;;15.90;59.70;;;;;;5116793;28;20035;-67
2021/05/30 03:23:36;;;;;;;1.85;1.33;;;15.80;59.90;;;;;;5117010;28;20016;-67
2021/05/30 03:26:03;;;;;;;2.00;1.42;;;15.80;60.30;;;;;;5116776;28;20016;-67
2021/05/30 03:28:28;;;;;;;4.75;1.30;;;15.80;60.10;;;;;;5116635;28;20067;-67
2021/05/30 03:30:54;;;;;;;2.88;1.33;;;15.80;60.30;;;;;;5116686;28;20464;-67
2021/05/30 03:33:20;;;;;;;1.85;1.40;;;15.80;61.10;;;;;;5116599;28;20034;-67
2021/05/30 03:35:46;;;;;;;3.42;1.33;;;15.70;60.80;;;;;;5116275;28;20080;-67
2021/05/30 03:38:14;;;;;;;2.38;1.40;;;15.70;60.90;;;;;;5116653;28;20053;-67
2021/05/30 03:43:08;;;;;;;2.25;1.60;;;15.60;61.60;;;;;;5116588;28;20091;-67
2021/05/30 03:45:34;;;;;;;1.40;1.30;;;15.60;61.40;;;;;;5116604;28;20034;-67
2021/05/30 03:48:00;;;;;;;2.35;1.40;;;15.60;61.50;;;;;;5116264;28;20055;-72
2021/05/30 03:50:26;;;;;;;1.92;1.55;;;15.60;62.00;;;;;;5116361;28;20027;-67
2021/05/30 03:52:53;;;;;;;2.35;1.30;;;15.60;62.30;;;;;;5116459;28;20028;-67
2021/05/30 03:55:19;;;;;;;2.22;1.48;;;15.60;62.10;;;;;;5116380;28;20494;-67
2021/05/30 03:57:45;;;;;;;1.90;1.20;;;15.50;62.40;;;;;;5115963;28;20494;-67
2021/05/30 04:00:14;;;;;;;2.80;1.20;;;15.50;62.60;;;;;;5116265;28;20019;-68
2021/05/30 04:02:41;;;;;;;2.72;1.40;;;15.50;63.00;;;;;;5116011;28;20036;-67
2021/05/30 04:05:07;;;;;;;1.45;1.20;;;15.40;64.20;;;;;;5116345;28;20132;-67
2021/05/30 04:07:33;;;;;;;2.28;1.30;;;15.30;63.50;;;;;;5116165;28;20073;-66
2021/05/30 04:10:06;;;;;;;2.33;1.60;;;15.30;63.90;;;;;;5115969;28;20395;-67
2021/05/30 04:12:36;;;;;;;2.03;1.65;;;15.30;65.10;;;;;;5115662;28;20383;-67
2021/05/30 04:15:02;;;;;;;2.33;1.40;;;15.30;66.00;;;;;;5115773;28;20028;-67
2021/05/30 04:17:27;;;;;;;1.60;1.50;;;15.30;66.20;;;;;;5115895;28;20039;-66
2021/05/30 04:19:53;;;;;;;2.20;1.42;;;15.30;65.50;;;;;;5115896;28;20020;-67
2021/05/30 04:22:19;;;;;;;2.35;1.55;;;15.30;65.20;;;;;;5114038;28;20459;-67
2021/05/30 04:24:44;;;;;;;1.90;1.30;;;15.30;65.70;;;;;;5115236;28;20039;-67
2021/05/30 04:27:10;;;;;;;2.22;1.48;;;15.30;65.70;;;;;;5115672;28;20103;-67
2021/05/30 04:29:36;;;;;;;2.38;1.45;;;15.30;65.90;;;;;;5115430;28;20139;-71
2021/05/30 04:32:02;;;;;;;1.60;1.42;;;15.30;66.80;;;;;;5115940;28;20106;-67
2021/05/30 04:34:29;;;;;;;2.10;1.55;;;15.30;66.40;;;;;;5115552;28;20019;-67
2021/05/30 04:36:54;;;;;;;3.85;1.40;;;15.30;66.20;;;;;;5115300;28;20032;-67
2021/05/30 04:39:20;;;;;;;4.20;1.50;;;15.20;66.70;;;;;;5113390;28;20027;-67
2021/05/30 04:41:46;;;;;;;3.58;1.42;;;15.30;66.60;;;;;;5115067;28;20035;-68
2021/05/30 04:44:12;;;;;;;2.33;1.35;;;15.30;66.80;;;;;;5113519;28;20024;-67
2021/05/30 04:46:37;;;;;;;4.20;1.33;;;15.30;67.10;;;;;;5114891;28;20037;-67
2021/05/30 04:49:03;;;;;;;2.03;1.42;;;15.30;67.30;;;;;;5114787;28;20034;-67
2021/05/30 04:51:28;;;;;;;1.83;1.50;;;15.30;67.70;;;;;;5115291;28;20479;-67
2021/05/30 04:53:55;;;;;;;3.08;1.92;;;15.30;67.30;;;;;;5115183;28;20472;-67
2021/05/30 04:56:22;;;;;;;3.22;1.67;;;15.30;67.30;;;;;;5115121;28;20043;-67
2021/05/30 04:58:48;;;;;;;4.38;1.30;;;15.30;67.40;;;;;;5114254;28;20023;-67
2021/05/30 05:01:14;;;;;;;2.10;1.30;;;15.30;67.50;;;;;;5114902;28;20383;-67
2021/05/30 05:03:40;;;;;;;3.70;1.55;;;15.30;67.40;;;;;;5115111;28;20074;-67
2021/05/30 05:06:06;;;;;;;2.10;1.30;;;15.40;67.40;;;;;;5115082;28;20024;-67
2021/05/30 05:08:32;;;;;;;2.30;1.15;;;15.40;66.90;;;;;;5114601;28;20031;-67
2021/05/30 05:10:58;;;;;;;2.08;1.20;;;15.50;66.50;;;;;;5114711;28;20531;-67
2021/05/30 05:13:23;;;;;;;2.13;1.17;;;15.50;65.20;;;;;;5114729;28;20034;-67
2021/05/30 05:15:51;;;;;;;1.58;1.20;;;15.50;64.80;;;;;;5114582;28;20024;-67
2021/05/30 05:18:23;;;;;;;4.25;1.23;;;15.50;64.60;;;;;;5114594;28;20023;-66
2021/05/30 05:20:50;;;;;;;3.42;1.13;;;15.60;64.40;;;;;;5113117;28;20392;-68
2021/05/30 05:23:22;;;;;;;1.48;1.35;;;15.60;64.40;;;;;;5111908;28;20035;-67
2021/05/30 05:25:49;;;;;;;2.22;1.30;;;15.60;64.50;;;;;;5111899;28;20027;-66
2021/05/30 05:28:15;;;;;;;1.67;1.30;;;15.70;64.50;;;;;;5113652;28;20047;-66
2021/05/30 05:30:41;;;;;;;2.05;1.20;;;15.80;64.40;;;;;;5114181;28;20482;-67
2021/05/30 05:33:07;;;;;;;1.85;1.40;;;15.80;63.40;;;;;;5114208;28;20027;-67
2021/05/30 05:35:32;;;;;;;5.05;1.30;;;15.80;62.50;;;;;;5113867;28;20464;-67
2021/05/30 05:37:59;;;;;;;4.47;1.20;;;15.90;62.10;;;;;;5113801;28;20036;-67
2021/05/30 05:40:27;;;;;;;4.53;1.30;;;16.00;61.40;;;;;;5114147;28;20020;-67
2021/05/30 05:42:54;;;;;;;2.38;1.27;;;16.00;61.10;;;;;;5113879;28;20028;-67
2021/05/30 05:45:22;;;;;;;2.83;1.30;;;16.10;60.50;;;;;;5113935;28;20094;-71
2021/05/30 05:47:49;;;;;;;3.67;1.10;;;16.10;60.50;;;;;;5113968;28;20019;-66
2021/05/30 05:50:16;;;;;;;1.70;1.30;;;16.20;60.40;;;;;;5114161;28;20483;-67
2021/05/30 05:52:44;;;;;;;2.03;1.40;;;16.20;60.10;;;;;;5113907;28;20475;-67
2021/05/30 05:55:10;;;;;;;4.55;1.33;;;16.20;60.30;;;;;;5111659;28;20047;-68
2021/05/30 05:57:37;;;;;;;2.30;1.27;;;16.30;60.40;;;;;;5110766;28;20035;-67
2021/05/30 06:00:05;;;;;;;2.30;1.20;;;16.40;59.90;;;;;;5112263;28;20047;-67
2021/05/30 06:02:31;;;;;;;2.13;1.20;;;16.40;59.60;;;;;;5113730;28;20036;-67
2021/05/30 06:04:57;;;;;;;2.88;1.20;;;16.50;59.90;;;;;;5113963;28;20024;-67
2021/05/30 06:07:23;;;;;;;1.80;1.30;;;16.50;59.70;;;;;;5113892;28;20027;-71
2021/05/30 06:09:48;;;;;;;4.07;1.13;;;16.50;59.90;;;;;;5113200;28;20105;-68
2021/05/30 06:12:14;;;;;;;2.03;1.10;;;16.50;59.90;;;;;;5113333;28;20576;-67
2021/05/30 06:14:40;;;;;;;1.80;1.10;;;16.50;59.70;;;;;;5113528;28;20092;-67
2021/05/30 06:17:06;;;;;;;1.67;1.00;;;16.60;59.40;;;;;;5113694;28;20040;-67
2021/05/30 06:19:33;;;;;;;1.65;1.20;;;16.60;58.90;;;;;;5113656;28;20023;-67
2021/05/30 06:21:58;;;;;;;1.50;1.02;;;16.60;58.40;;;;;;5113766;28;20383;-67
2021/05/30 06:24:24;;;;;;;2.28;1.10;;;16.60;58.30;;;;;;5113370;28;20098;-67
2021/05/30 06:26:54;;;;;;;3.28;0.95;;;16.70;58.90;;;;;;5113720;28;20031;-67
2021/05/30 06:29:20;;;;;;;4.57;1.30;;;16.70;58.60;;;;;;5113287;28;20461;-67
2021/05/30 06:31:46;;;;;;;3.00;1.20;;;16.80;58.80;;;;;;5113388;28;20039;-67
2021/05/30 06:34:15;;;;;;;5.03;1.38;;;16.80;57.80;;;;;;5113203;28;20035;-67
2021/05/30 06:36:45;;;;;;;1.42;0.90;;;16.90;58.00;;;;;;5113012;28;20047;-66
2021/05/30 06:39:11;;;;;;;2.13;1.10;;;16.90;58.40;;;;;;5113516;28;20023;-68
2021/05/30 06:41:37;;;;;;;1.63;1.20;;;17.00;58.30;;;;;;5113400;28;20039;-67
2021/05/30 06:44:04;;;;;;;1.38;0.90;;;17.00;57.40;;;;;;5113326;28;20066;-70
2021/05/30 06:46:30;;;;;;;4.50;1.30;;;17.10;56.90;;;;;;5113254;28;20495;-67
2021/05/30 06:48:57;;;;;;;2.97;1.00;;;17.10;57.00;;;;;;5113181;28;20030;-68
2021/05/30 06:51:23;;;;;;;4.13;1.10;;;17.20;57.10;;;;;;5113092;28;20058;-67
2021/05/30 06:53:50;;;;;;;1.33;0.90;;;17.20;56.40;;;;;;5113128;28;20019;-67
2021/05/30 06:56:17;;;;;;;2.22;1.40;;;17.30;56.60;;;;;;5112748;28;20076;-67
2021/05/30 06:58:43;;;;;;;1.00;0.90;;;17.30;56.50;;;;;;5112120;28;20470;-67
2021/05/30 07:01:08;;;;;;;3.08;0.98;;;17.40;55.70;;;;;;5112338;28;20097;-67
2021/05/30 07:03:34;;;;;;;1.65;1.00;;;17.50;56.30;;;;;;5094308;28;20032;-67
2021/05/30 07:06:00;;;;;;;1.15;0.90;;;17.50;56.00;;;;;;5111817;28;20540;-67
2021/05/30 07:08:26;;;;;;;5.45;1.10;;;17.60;54.70;;;;;;5112733;28;20023;-67
2021/05/30 07:10:55;;;;;;;2.30;1.00;;;17.60;54.90;;;;;;5111587;28;20102;-68
2021/05/30 07:13:21;;;;;;;3.20;0.73;;;17.70;55.40;;;;;;5112486;28;20416;-68
2021/05/30 07:15:48;;;;;;;4.72;1.00;;;17.80;55.20;;;;;;5111180;28;20118;-68
2021/05/30 07:18:14;;;;;;;4.78;0.90;;;17.90;55.30;;;;;;5111482;28;20077;-67
2021/05/30 07:20:43;;;;;;;1.23;0.80;;;17.90;54.10;;;;;;5112275;28;20016;-68
2021/05/30 07:23:09;;;;;;;2.45;0.85;;;18.00;53.30;;;;;;5115916;28;20061;-67
2021/05/30 07:25:35;;;;;;;1.33;0.82;;;18.00;52.80;;;;;;5115006;28;20051;-68
2021/05/30 07:28:01;;;;;;;2.50;1.10;;;18.10;54.20;;;;;;5115956;28;20020;-67
2021/05/30 07:30:27;;;;;;;3.30;1.15;;;18.20;54.80;;;;;;5117080;28;20425;-67
2021/05/30 07:32:53;;;;;;;3.33;1.10;;;18.20;55.60;;;;;;5116516;28;20027;-67
2021/05/30 07:35:18;;;;;;;1.42;0.93;;;18.30;55.40;;;;;;5116696;28;20047;-67
2021/05/30 07:37:44;;;;;;;2.97;0.93;;;18.30;54.20;;;;;;5116792;28;20499;-67
2021/05/30 07:40:11;;;;;;;2.17;0.95;;;18.40;54.30;;;;;;5116929;28;20103;-67
2021/05/30 07:42:36;;;;;;;2.78;1.20;;;18.30;54.40;;;;;;5098649;28;20553;-67
2021/05/30 07:45:04;;;;;;;2.15;0.95;;;18.30;53.50;;;;;;5116671;28;20043;-67
2021/05/30 07:47:29;;;;;;;2.10;0.90;;;18.30;54.30;;;;;;5116570;28;20023;-67
2021/05/30 07:49:55;;;;;;;1.17;0.73;;;18.30;53.20;;;;;;5116509;28;20030;-67
2021/05/30 07:52:21;;;;;;;1.27;0.88;;;18.30;53.40;;;;;;5116634;28;20027;-67
2021/05/30 07:54:46;;;;;;;1.23;1.08;;;18.30;53.90;;;;;;5116664;28;20486;-67
2021/05/30 07:57:12;;;;;;;1.42;0.90;;;18.30;53.60;;;;;;5116656;28;20114;-67
2021/05/30 07:59:38;;;;;;;2.88;1.45;;;18.40;53.50;;;;;;5116190;28;20026;-71
2021/05/30 08:02:04;;;;;;;1.65;1.00;;;18.40;53.60;;;;;;5116240;28;20050;-68
2021/05/30 08:04:29;;;;;;;2.58;0.80;;;18.40;52.20;;;;;;5116404;28;20015;-67
2021/05/30 08:06:55;;;;;;;1.42;0.75;;;18.40;53.20;;;;;;5116277;28;20027;-67
2021/05/30 08:09:21;;;;;;;1.17;0.88;;;18.40;52.90;;;;;;5116164;28;20131;-67
2021/05/30 08:11:47;;;;;;;1.65;0.80;;;18.40;53.60;;;;;;5115825;28;20034;-67
2021/05/30 08:14:12;;;;;;;1.25;0.93;;;18.50;54.00;;;;;;5116110;28;20034;-67
2021/05/30 08:16:42;;;;;;;2.70;0.80;;;18.50;54.50;;;;;;5116051;28;20035;-67
2021/05/30 08:19:09;;;;;;;1.25;0.80;;;18.50;53.90;;;;;;5115691;28;20374;-67
2021/05/30 08:21:34;;;;;;;4.90;1.63;;;18.60;53.70;;;;;;5115930;28;20027;-67
2021/05/30 08:24:00;;;;;;;1.17;0.90;;;18.60;54.60;;;;;;5116041;28;20030;-67
2021/05/30 08:26:25;;;;;;;1.90;0.88;;;18.60;55.10;;;;;;5097408;28;20058;-67
2021/05/30 08:28:51;;;;;;;1.30;0.90;;;18.70;53.20;;;;;;5123321;22;20056;-66
2021/05/30 08:31:17;;;;;;;3.25;1.20;;;18.80;52.50;;;;;;5095365;28;20027;-66
2021/05/30 08:33:42;;;;;;;3.42;1.00;;;18.80;50.00;;;;;;5094143;28;20028;-66
2021/05/30 08:36:08;;;;;;;5.63;0.90;;;18.90;51.50;;;;;;5095316;28;20055;-66
2021/05/30 08:38:34;;;;;;;1.25;0.70;;;19.00;52.50;;;;;;5095248;28;20024;-66
2021/05/30 08:41:00;;;;;;;1.33;0.80;;;19.00;50.80;;;;;;5095191;28;20024;-66
2021/05/30 08:43:27;;;;;;;2.67;0.90;;;19.10;51.00;;;;;;5095077;28;20024;-66
2021/05/30 08:45:53;;;;;;;0.90;0.70;;;19.10;51.00;;;;;;5095058;28;20224;-66
2021/05/30 08:48:19;;;;;;;1.33;0.70;;;19.20;51.50;;;;;;5094820;28;20114;-66
2021/05/30 08:51:01;;;;;;;2.75;1.17;;;19.40;51.00;;;;;;5094862;28;20023;-66
2021/05/30 08:53:28;;;;;;;;;;;19.40;49.70;;;;;;5095163;28;20507;-66
2021/05/30 08:55:53;;;;;;;2.05;0.88;;;19.50;49.60;;;;;;5094665;28;19969;-66
2021/05/30 08:58:19;;;;;;;1.33;0.93;;;19.60;49.70;;;;;;5094637;28;20028;-66
2021/05/30 09:00:45;;;;;;;1.35;0.90;;;19.60;49.30;;;;;;5094776;28;20487;-66
2021/05/30 09:03:12;;;;;;;1.73;0.80;;;19.70;49.30;;;;;;5095032;28;20024;-65
2021/05/30 09:05:38;;;;;;;2.65;0.95;;;19.80;46.10;;;;;;5094420;28;20024;-66
2021/05/30 09:08:04;;;;;;;1.35;0.95;;;19.70;44.60;;;;;;5094759;28;20035;-66
2021/05/30 09:10:30;;;;;;;4.47;0.70;;;19.70;46.00;;;;;;5094672;28;20397;-66
2021/05/30 09:13:10;;;;;;;1.27;0.90;;;19.60;44.70;;;;;;5094548;28;20082;-66
2021/05/30 09:15:52;;;;;;;0.82;0.60;;;19.60;46.80;;;;;;5094478;28;20020;-66
2021/05/30 09:18:33;;;;;;;0.80;0.80;;;19.60;46.90;;;;;;5094096;28;20557;-66
2021/05/30 09:20:59;;;;;;;0.95;0.80;;;19.60;46.90;;;;;;5094297;28;20016;-66
2021/05/30 09:23:37;;;;;;;3.20;1.70;;;19.60;47.40;;;;;;5094307;28;20032;-66
2021/05/30 09:26:10;;;;;;;1.25;0.90;;;19.60;44.20;;;;;;5094130;28;20031;-66
2021/05/30 09:28:38;;;;;;;1.60;1.05;;;19.60;43.80;;;;;;5094006;28;20048;-66
2021/05/30 09:31:04;;;;;;;1.33;0.90;;;19.50;43.40;;;;;;5094190;28;20020;-66
2021/05/30 09:33:33;;;;;;;3.30;0.98;;;19.50;45.10;;;;;;5094084;28;20473;-66
2021/05/30 09:36:03;;;;;;;2.65;1.50;;;19.40;45.10;;;;;;5094040;28;20541;-66
2021/05/30 09:38:35;;;;;;;2.47;1.30;;;19.40;46.00;;;;;;5093741;28;20496;-66
2021/05/30 09:41:21;;;;;;;2.00;1.60;;;19.40;46.90;;;;;;5094079;28;20020;-66
2021/05/30 09:43:51;;;;;;;1.85;0.77;;;19.40;48.90;;;;;;5093465;28;20583;-66
2021/05/30 09:46:18;;;;;;;2.22;0.80;;;19.40;49.30;;;;;;5093712;28;20422;-66
2021/05/30 09:48:55;;;;;;;1.67;0.80;;;19.40;48.70;;;;;;5093887;28;20361;-66
2021/05/30 09:51:33;;;;;;;2.88;0.68;;;19.40;48.10;;;;;;5093812;28;20028;-66
2021/05/30 09:54:14;;;;;;;2.17;0.90;;;19.40;47.60;;;;;;5093719;28;20499;-66
2021/05/30 09:56:44;;;;;;;1.63;0.80;;;19.40;47.30;;;;;;5093647;28;20036;-66
2021/05/30 09:59:21;;;;;;;1.63;0.93;;;19.40;47.80;;;;;;5093460;28;20044;-66
2021/05/30 10:02:06;;;;;;;2.90;1.02;;;19.40;48.90;;;;;;5093631;28;20036;-67
2021/05/30 10:04:36;;;;;;;1.17;0.90;;;19.40;48.70;;;;;;5093834;28;20097;-66
2021/05/30 10:07:04;;;;;;;1.58;0.80;;;19.40;46.80;;;;;;5093451;28;20024;-66
2021/05/30 10:09:30;;;;;;;4.70;0.80;;;19.50;47.70;;;;;;5093524;28;20016;-66
2021/05/30 10:11:57;;;;;;;0.93;0.63;;;19.50;48.10;;;;;;5093378;28;20056;-66
2021/05/30 10:14:26;;;;;;;1.98;0.77;;;19.60;48.40;;;;;;5093469;28;20020;-65
2021/05/30 10:16:52;;;;;;;3.15;0.73;;;19.60;48.30;;;;;;5093405;28;20040;-66
2021/05/30 10:19:31;;;;;;;1.10;0.70;;;19.60;48.30;;;;;;5093196;28;20023;-66
2021/05/30 10:21:59;;;;;;;2.67;0.93;;;19.70;48.80;;;;;;5093171;28;20107;-66
2021/05/30 10:24:25;;;;;;;6.32;1.05;;;19.90;50.20;;;;;;5093300;28;20441;-66
2021/05/30 10:27:12;;;;;;;0.80;0.63;;;20.00;49.10;;;;;;5093352;28;20028;-66
2021/05/30 10:29:38;;;;;;;3.58;0.93;;;20.20;46.70;;;;;;5092909;28;20596;-67
2021/05/30 10:32:19;;;;;;;2.30;1.10;;;20.30;46.90;;;;;;5093218;28;20476;-67
2021/05/30 10:35:17;;;;;;;4.17;0.97;;;20.30;46.90;;;;;;5093233;28;20023;-67
2021/05/30 10:37:44;;;;;;;1.10;0.90;;;20.30;46.30;;;;;;5093044;28;20438;-67
2021/05/30 10:40:26;;;;;;;1.17;1.00;;;20.40;46.90;;;;;;5093285;28;20025;-67
2021/05/30 10:43:12;;;;;;;2.45;0.90;;;20.40;47.10;;;;;;5093256;28;20028;-67
2021/05/30 10:45:44;;;;;;;1.05;0.80;;;20.40;47.30;;;;;;5093260;28;20020;-67
2021/05/30 10:48:20;;;;;;;1.13;0.70;;;20.40;45.80;;;;;;5093059;28;20024;-67
2021/05/30 10:51:01;;;;;;;1.65;0.80;;;20.50;46.40;;;;;;5092968;28;20038;-67
2021/05/30 10:53:46;;;;;;;2.92;0.68;;;20.50;45.90;;;;;;5093282;28;20025;-67
2021/05/30 10:56:41;;;;;;;1.10;0.93;;;20.50;46.80;;;;;;5093091;28;20028;-67
2021/05/30 10:59:10;;;;;;;1.38;0.90;;;20.60;46.70;;;;;;5079098;28;20067;-67
2021/05/30 11:01:40;;;;;;;1.20;0.70;;;20.60;47.40;;;;;;5097060;28;20036;-67
2021/05/30 11:04:30;;;;;;;0.98;0.70;;;20.50;46.10;;;;;;5096915;28;20460;-67
2021/05/30 11:07:06;;;;;;;0.85;0.70;;;20.60;47.10;;;;;;5097204;28;20031;-67
2021/05/30 11:09:57;;;;;;;1.73;0.70;;;20.70;46.40;;;;;;5096800;28;20158;-67
2021/05/30 11:12:33;;;;;;;1.98;0.80;;;20.80;44.90;;;;;;5096806;28;20047;-67
2021/05/30 11:15:14;;;;;;;3.92;1.70;;;20.90;43.90;;;;;;5096777;28;20456;-67
2021/05/30 11:17:52;;;;;;;1.03;0.77;;;20.90;45.10;;;;;;5096465;28;20024;-67
2021/05/30 11:20:24;;;;;;;3.22;0.88;;;20.90;45.70;;;;;;5096737;28;20367;-67
2021/05/30 11:22:54;;;;;;;1.45;0.75;;;20.90;45.10;;;;;;5096815;28;20028;-67
2021/05/30 11:25:28;;;;;;;1.20;0.80;;;20.90;45.60;;;;;;5095106;28;20115;-67
2021/05/30 11:27:58;;;;;;;1.92;1.05;;;20.90;45.40;;;;;;5093852;28;20387;-67
2021/05/30 11:30:50;;;;;;;1.40;0.98;;;20.90;43.80;;;;;;5094402;28;20055;-67
2021/05/30 11:33:28;;;;;;;1.15;0.70;;;20.90;43.10;;;;;;5096381;28;20028;-67
2021/05/30 11:35:55;;;;;;;3.88;1.02;;;20.90;43.30;;;;;;5096349;28;20055;-67
2021/05/30 11:38:41;;;;;;;1.45;1.00;;;20.80;44.00;;;;;;5096282;28;20032;-67
2021/05/30 11:41:19;;;;;;;1.42;0.52;;;20.80;44.40;;;;;;5096383;28;20058;-67
2021/05/30 11:43:55;;;;;;;4.63;0.80;;;20.80;45.20;;;;;;5096161;28;20055;-67
2021/05/30 11:46:21;;;;;;;1.20;0.60;;;20.80;45.30;;;;;;5096377;28;20020;-67
2021/05/30 11:49:06;;;;;;;1.27;0.60;;;20.90;45.20;;;;;;5096172;28;20379;-67
2021/05/30 11:51:52;;;;;;;2.38;0.70;;;20.80;45.90;;;;;;5093386;28;20029;-67
2021/05/30 11:54:20;;;;;;;1.00;0.75;;;20.80;45.80;;;;;;5093254;28;20456;-67
2021/05/30 11:56:50;;;;;;;1.23;0.88;;;20.80;46.30;;;;;;5076108;28;20035;-67
2021/05/30 11:59:25;;;;;;;2.42;0.88;;;20.90;45.60;;;;;;5095397;28;20437;-67
2021/05/30 12:01:51;;;;;;;1.20;0.80;;;20.90;44.50;;;;;;5095941;28;20050;-67
2021/05/30 12:04:25;;;;;;;3.03;0.88;;;20.90;45.60;;;;;;5095572;28;20027;-67
2021/05/30 12:06:51;;;;;;;0.90;0.68;;;20.90;46.20;;;;;;5095815;28;20032;-67
2021/05/30 12:09:18;;;;;;;1.10;0.80;;;21.00;45.70;;;;;;5076530;28;20444;-67
2021/05/30 12:11:44;;;;;;;2.72;0.82;;;21.00;45.70;;;;;;5095784;28;20024;-67
2021/05/30 12:14:09;;;;;;;1.92;0.95;;;21.20;44.20;;;;;;5095330;28;20350;-67
2021/05/30 12:16:36;;;;;;;6.45;0.90;;;21.30;41.90;;;;;;5095446;28;20085;-67
2021/05/30 12:19:04;;;;;;;1.10;0.80;;;21.50;42.80;;;;;;5095593;28;20534;-67
2021/05/30 12:21:45;;;;;;;1.20;0.70;;;21.60;43.70;;;;;;5095134;28;20095;-67
2021/05/30 12:24:13;;;;;;;0.93;0.80;;;21.70;40.70;;;;;;5095231;28;20031;-67
2021/05/30 12:26:46;;;;;;;1.10;0.70;;;21.80;39.80;;;;;;5095080;28;20476;-67
2021/05/30 12:29:14;;;;;;;1.52;1.25;;;21.80;41.80;;;;;;5094921;28;20118;-67
2021/05/30 12:31:41;;;;;;;1.85;0.80;;;21.90;41.80;;;;;;5095335;28;20090;-67
2021/05/30 12:34:08;;;;;;;0.77;0.75;;;22.00;39.40;;;;;;5095156;28;20013;-67
2021/05/30 12:36:46;;;;;;;0.88;0.82;;;22.00;41.30;;;;;;5095034;28;20036;-67
2021/05/30 12:39:32;;;;;;;2.65;0.90;;;22.10;43.20;;;;;;5094805;28;20047;-67
2021/05/30 12:42:03;;;;;;;3.10;0.70;;;22.30;41.90;;;;;;5094714;28;20071;-67
2021/05/30 12:44:36;;;;;;;1.00;0.90;;;22.40;40.40;;;;;;5095048;28;20453;-67
2021/05/30 12:47:10;;;;;;;1.55;1.00;;;22.50;38.70;;;;;;5095036;28;20438;-67
2021/05/30 12:49:37;;;;;;;1.85;0.90;;;22.60;41.70;;;;;;5094521;28;20063;-67
2021/05/30 12:52:04;;;;;;;0.95;0.60;;;22.70;42.20;;;;;;5094989;28;20020;-67
2021/05/30 12:54:32;;;;;;;1.30;1.10;;;22.70;38.90;;;;;;5094847;28;20035;-67
2021/05/30 12:56:59;;;;;;;1.08;0.80;;;22.70;39.20;;;;;;5094577;28;20043;-67
2021/05/30 12:59:27;;;;;;;1.70;1.02;;;22.70;41.10;;;;;;5094382;28;20096;-67